createdAt,value
2022-08-06T00:00:09.043Z,68
2022-08-06T00:01:01.029Z,68
2022-08-06T00:02:01.212Z,68
2022-08-06T00:03:01.059Z,68
2022-08-06T00:04:02.146Z,68
2022-08-06T00:05:05.855Z,66
2022-08-06T00:06:01.210Z,66
2022-08-06T00:07:01.072Z,66
2022-08-06T00:08:02.675Z,67
2022-08-06T00:09:01.085Z,67
2022-08-06T00:10:04.731Z,68
2022-08-06T00:11:01.092Z,68
2022-08-06T00:12:01.200Z,68
2022-08-06T00:13:02.095Z,68
2022-08-06T00:14:01.232Z,68
2022-08-06T00:15:13.230Z,68
2022-08-06T00:16:09.767Z,68
2022-08-06T00:17:01.131Z,68
2022-08-06T00:18:01.235Z,68
2022-08-06T00:19:01.136Z,68
2022-08-06T00:20:04.572Z,68
2022-08-06T00:21:00.528Z,68
2022-08-06T00:22:00.298Z,68
2022-08-06T00:23:00.893Z,68
2022-08-06T00:24:00.259Z,68
2022-08-06T00:25:02.904Z,69
2022-08-06T00:26:00.247Z,69
2022-08-06T00:27:05.705Z,69
2022-08-06T00:28:00.254Z,70
2022-08-06T00:29:00.234Z,70
2022-08-06T00:30:05.595Z,71
2022-08-06T00:31:00.972Z,71
2022-08-06T00:32:01.578Z,71
2022-08-06T00:33:00.230Z,71
2022-08-06T00:34:00.296Z,71
2022-08-06T00:35:03.356Z,71
2022-08-06T00:36:00.315Z,71
2022-08-06T00:37:00.259Z,72
2022-08-06T00:38:00.362Z,72
2022-08-06T00:39:00.626Z,72
2022-08-06T00:40:03.474Z,72
2022-08-06T00:41:00.287Z,72
2022-08-06T00:42:00.353Z,72
2022-08-06T00:43:02.226Z,72
2022-08-06T00:44:02.397Z,72
2022-08-06T00:45:03.758Z,72
2022-08-06T00:46:01.644Z,72
2022-08-06T00:47:00.364Z,72
2022-08-06T00:48:02.445Z,72
2022-08-06T00:49:10.992Z,72
2022-08-06T00:50:03.530Z,73
2022-08-06T00:51:01.073Z,73
2022-08-06T00:52:00.469Z,73
2022-08-06T00:53:00.385Z,73
2022-08-06T00:54:00.532Z,73
2022-08-06T00:55:03.330Z,73
2022-08-06T00:56:01.476Z,73
2022-08-06T00:57:00.433Z,74
2022-08-06T00:58:00.528Z,74
2022-08-06T00:59:01.208Z,74
2022-08-06T01:00:03.692Z,74
2022-08-06T01:01:00.490Z,74
2022-08-06T01:02:00.646Z,74
2022-08-06T01:03:00.495Z,74
2022-08-06T01:04:01.649Z,74
2022-08-06T01:05:33.934Z,74
2022-08-06T01:06:52.866Z,75
2022-08-06T01:07:00.506Z,75
2022-08-06T01:08:01.654Z,75
2022-08-06T01:09:00.545Z,75
2022-08-06T01:10:05.093Z,76
2022-08-06T01:11:00.546Z,76
2022-08-06T01:12:03.489Z,76
2022-08-06T01:13:00.555Z,76
2022-08-06T01:14:02.708Z,76
2022-08-06T01:15:04.985Z,76
2022-08-06T01:16:09.029Z,77
2022-08-06T01:17:02.459Z,77
2022-08-06T01:18:00.677Z,77
2022-08-06T01:19:00.594Z,77
2022-08-06T01:21:56.344Z,77
2022-08-06T01:22:00.988Z,77
2022-08-06T01:22:31.143Z,77
2022-08-06T01:23:00.624Z,76
2022-08-06T01:24:00.741Z,76
2022-08-06T01:25:04.003Z,76
2022-08-06T01:26:00.766Z,76
2022-08-06T01:27:00.660Z,76
2022-08-06T01:28:00.694Z,76
2022-08-06T01:29:00.684Z,77
2022-08-06T01:30:03.846Z,77
2022-08-06T01:31:00.666Z,77
2022-08-06T01:32:01.691Z,77
2022-08-06T01:33:00.703Z,77
2022-08-06T01:34:00.772Z,77
2022-08-06T01:35:03.591Z,77
2022-08-06T01:36:01.571Z,77
2022-08-06T01:37:00.713Z,77
2022-08-06T01:38:01.075Z,77
2022-08-06T01:39:01.317Z,77
2022-08-06T01:40:08.966Z,77
2022-08-06T01:41:00.742Z,76
2022-08-06T01:42:00.853Z,76
2022-08-06T01:43:00.785Z,76
2022-08-06T01:44:05.701Z,76
2022-08-06T01:45:16.360Z,76
2022-08-06T01:46:00.860Z,75
2022-08-06T01:47:00.801Z,75
2022-08-06T01:48:01.297Z,75
2022-08-06T01:49:09.477Z,75
2022-08-06T01:50:04.396Z,75
2022-08-06T01:51:00.835Z,75
2022-08-06T01:52:15.227Z,75
2022-08-06T01:53:01.194Z,75
2022-08-06T01:54:06.462Z,74
2022-08-06T01:55:03.783Z,74
2022-08-06T01:56:00.956Z,74
2022-08-06T01:57:00.875Z,74
2022-08-06T01:58:08.303Z,74
2022-08-06T01:59:00.889Z,74
2022-08-06T02:00:05.377Z,74
2022-08-06T02:01:01.896Z,74
2022-08-06T02:02:03.265Z,74
2022-08-06T02:03:00.932Z,74
2022-08-06T02:04:01.031Z,74
2022-08-06T02:05:09.497Z,74
2022-08-06T02:06:01.622Z,76
2022-08-06T02:07:00.949Z,76
2022-08-06T02:08:37.438Z,76
2022-08-06T02:09:16.381Z,76
2022-08-06T02:10:04.468Z,76
2022-08-06T02:11:00.964Z,76
2022-08-06T02:12:06.360Z,76
2022-08-06T02:13:02.936Z,77
2022-08-06T02:14:01.611Z,77
2022-08-06T02:15:03.674Z,77
2022-08-06T02:16:01.081Z,77
2022-08-06T02:17:13.403Z,77
2022-08-06T02:18:06.291Z,77
2022-08-06T02:19:01.024Z,77
2022-08-06T02:20:11.519Z,77
2022-08-06T02:21:18.343Z,77
2022-08-06T02:22:01.133Z,77
2022-08-06T02:23:01.056Z,77
2022-08-06T02:24:01.174Z,77
2022-08-06T02:25:14.650Z,77
2022-08-06T02:26:01.184Z,77
2022-08-06T02:27:01.100Z,77
2022-08-06T02:28:01.171Z,77
2022-08-06T02:29:01.105Z,78
2022-08-06T02:30:06.013Z,78
2022-08-06T02:31:01.535Z,78
2022-08-06T02:32:01.836Z,78
2022-08-06T02:33:02.699Z,78
2022-08-06T02:34:13.732Z,79
2022-08-06T02:35:05.621Z,79
2022-08-06T02:36:02.404Z,79
2022-08-06T02:37:01.163Z,79
2022-08-06T02:38:02.881Z,79
2022-08-06T02:39:00.272Z,79
2022-08-06T02:40:03.423Z,79
2022-08-06T02:41:00.622Z,80
2022-08-06T02:42:00.328Z,80
2022-08-06T02:43:00.192Z,80
2022-08-06T02:44:01.639Z,80
2022-08-06T02:45:04.350Z,80
2022-08-06T02:46:00.321Z,80
2022-08-06T02:47:00.215Z,80
2022-08-06T02:48:02.416Z,80
2022-08-06T02:49:00.224Z,80
2022-08-06T02:50:03.401Z,80
2022-08-06T02:51:00.289Z,80
2022-08-06T02:52:11.431Z,80
2022-08-06T02:53:00.358Z,80
2022-08-06T02:54:05.063Z,80
2022-08-06T02:55:03.388Z,80
2022-08-06T02:56:01.814Z,80
2022-08-06T02:57:00.301Z,81
2022-08-06T02:58:00.408Z,81
2022-08-06T02:59:00.439Z,81
2022-08-06T03:00:03.652Z,81
2022-08-06T03:01:00.410Z,81
2022-08-06T03:02:00.531Z,81
2022-08-06T03:03:00.425Z,81
2022-08-06T03:04:01.645Z,81
2022-08-06T03:05:03.204Z,81
2022-08-06T03:06:00.461Z,81
2022-08-06T03:07:00.378Z,81
2022-08-06T03:08:01.638Z,81
2022-08-06T03:09:00.392Z,81
2022-08-06T03:10:03.659Z,81
2022-08-06T03:11:00.384Z,81
2022-08-06T03:12:01.583Z,81
2022-08-06T03:13:03.528Z,81
2022-08-06T03:14:00.502Z,81
2022-08-06T03:15:03.627Z,82
2022-08-06T03:16:01.747Z,82
2022-08-06T03:17:00.544Z,82
2022-08-06T03:18:00.514Z,82
2022-08-06T03:19:56.454Z,82
2022-08-06T03:20:03.585Z,82
2022-08-06T03:21:00.942Z,82
2022-08-06T03:22:00.526Z,82
2022-08-06T03:23:00.501Z,82
2022-08-06T03:24:00.561Z,82
2022-08-06T03:25:03.690Z,82
2022-08-06T03:26:01.309Z,82
2022-08-06T03:27:00.499Z,82
2022-08-06T03:28:02.436Z,82
2022-08-06T03:29:00.502Z,82
2022-08-06T03:30:05.271Z,82
2022-08-06T03:31:00.531Z,82
2022-08-06T03:32:24.823Z,82
2022-08-06T03:33:07.619Z,82
2022-08-06T03:34:03.967Z,82
2022-08-06T03:35:03.465Z,82
2022-08-06T03:36:02.191Z,82
2022-08-06T03:37:00.854Z,82
2022-08-06T03:38:02.280Z,82
2022-08-06T03:39:00.710Z,82
2022-08-06T03:40:04.142Z,82
2022-08-06T03:41:01.031Z,82
2022-08-06T03:42:08.660Z,82
2022-08-06T03:43:00.611Z,82
2022-08-06T03:44:03.830Z,83
2022-08-06T03:45:03.371Z,83
2022-08-06T03:46:00.719Z,83
2022-08-06T03:47:00.643Z,83
2022-08-06T03:48:07.813Z,83
2022-08-06T03:49:00.640Z,83
2022-08-06T03:50:03.790Z,83
2022-08-06T03:51:00.665Z,83
2022-08-06T03:52:01.618Z,83
2022-08-06T03:53:00.671Z,83
2022-08-06T03:54:00.758Z,83
2022-08-06T03:55:04.820Z,83
2022-08-06T03:56:02.181Z,83
2022-08-06T03:57:00.705Z,83
2022-08-06T03:58:00.765Z,83
2022-08-06T03:59:00.711Z,83
2022-08-06T04:00:04.690Z,83
2022-08-06T04:01:01.963Z,83
2022-08-06T04:02:00.940Z,83
2022-08-06T04:03:02.656Z,83
2022-08-06T04:04:01.581Z,83
2022-08-06T04:05:03.521Z,83
2022-08-06T04:06:00.838Z,83
2022-08-06T04:07:02.681Z,83
2022-08-06T04:08:04.792Z,84
2022-08-06T04:09:00.785Z,84
2022-08-06T04:10:04.288Z,84
2022-08-06T04:11:00.778Z,84
2022-08-06T04:12:37.251Z,84
2022-08-06T04:13:38.993Z,84
2022-08-06T04:14:06.202Z,84
2022-08-06T04:15:04.722Z,84
2022-08-06T04:16:01.917Z,84
2022-08-06T04:17:00.821Z,84
2022-08-06T04:18:00.911Z,84
2022-08-06T04:19:00.833Z,84
2022-08-06T04:20:04.110Z,84
2022-08-06T04:21:19.351Z,84
2022-08-06T04:23:00.037Z,84
2022-08-06T04:23:08.965Z,85
2022-08-06T04:24:01.021Z,85
2022-08-06T04:25:18.121Z,85
2022-08-06T04:26:01.040Z,85
2022-08-06T04:27:00.896Z,85
2022-08-06T04:28:00.974Z,85
2022-08-06T04:29:00.897Z,85
2022-08-06T04:30:04.225Z,85
2022-08-06T04:31:00.936Z,85
2022-08-06T04:32:13.467Z,85
2022-08-06T04:33:01.767Z,85
2022-08-06T04:34:01.012Z,85
2022-08-06T04:36:06.606Z,85
2022-08-06T04:36:06.714Z,85
2022-08-06T04:37:01.479Z,85
2022-08-06T04:38:01.073Z,85
2022-08-06T04:39:01.019Z,85
2022-08-06T04:40:04.591Z,85
2022-08-06T04:41:03.553Z,85
2022-08-06T04:42:01.124Z,85
2022-08-06T04:43:01.000Z,85
2022-08-06T04:44:04.154Z,85
2022-08-06T04:46:16.823Z,85
2022-08-06T04:46:17.188Z,85
2022-08-06T04:47:01.016Z,85
2022-08-06T04:48:01.150Z,85
2022-08-06T04:49:01.785Z,85
2022-08-06T04:50:09.234Z,85
2022-08-06T04:51:01.073Z,85
2022-08-06T04:52:45.838Z,85
2022-08-06T04:53:01.053Z,86
2022-08-06T04:54:01.174Z,86
2022-08-06T04:55:03.893Z,86
2022-08-06T04:56:03.131Z,86
2022-08-06T04:57:21.840Z,86
2022-08-06T04:58:03.368Z,86
2022-08-06T04:59:01.103Z,85
2022-08-06T05:00:05.973Z,85
2022-08-06T05:01:10.129Z,84
2022-08-06T05:02:01.357Z,84
2022-08-06T05:03:01.165Z,84
2022-08-06T05:04:08.776Z,84
2022-08-06T05:05:02.879Z,84
2022-08-06T05:06:00.547Z,85
2022-08-06T05:07:00.163Z,85
2022-08-06T05:08:01.503Z,85
2022-08-06T05:09:00.195Z,85
2022-08-06T05:10:03.317Z,85
2022-08-06T05:11:00.209Z,85
2022-08-06T05:12:00.304Z,85
2022-08-06T05:13:00.215Z,85
2022-08-06T05:14:00.295Z,85
2022-08-06T05:15:03.361Z,85
2022-08-06T05:16:00.296Z,85
2022-08-06T05:17:00.244Z,85
2022-08-06T05:18:00.348Z,85
2022-08-06T05:19:21.429Z,85
2022-08-06T05:20:04.981Z,85
2022-08-06T05:21:00.293Z,85
2022-08-06T05:22:05.359Z,85
2022-08-06T05:23:02.796Z,85
2022-08-06T05:24:00.400Z,85
2022-08-06T05:25:13.144Z,85
2022-08-06T05:26:00.389Z,85
2022-08-06T05:27:00.332Z,85
2022-08-06T05:28:10.085Z,84
2022-08-06T05:29:00.327Z,84
2022-08-06T05:30:03.758Z,84
2022-08-06T05:31:00.355Z,84
2022-08-06T05:32:02.636Z,84
2022-08-06T05:33:02.307Z,84
2022-08-06T05:34:01.964Z,84
2022-08-06T05:35:04.660Z,84
2022-08-06T05:36:02.970Z,84
2022-08-06T05:37:00.390Z,84
2022-08-06T05:38:01.895Z,84
2022-08-06T05:39:00.590Z,84
2022-08-06T05:40:09.952Z,84
2022-08-06T05:41:01.613Z,84
2022-08-06T05:42:00.968Z,84
2022-08-06T05:43:00.401Z,83
2022-08-06T05:44:02.033Z,83
2022-08-06T05:45:03.300Z,83
2022-08-06T05:46:00.494Z,83
2022-08-06T05:47:00.426Z,83
2022-08-06T05:48:00.527Z,83
2022-08-06T05:49:00.452Z,83
2022-08-06T05:50:03.628Z,83
2022-08-06T05:51:00.469Z,83
2022-08-06T05:52:00.526Z,82
2022-08-06T05:53:00.461Z,82
2022-08-06T05:54:03.530Z,82
2022-08-06T05:55:03.541Z,82
2022-08-06T05:56:00.544Z,81
2022-08-06T05:57:04.981Z,81
2022-08-06T05:58:01.266Z,81
2022-08-06T05:59:00.534Z,81
2022-08-06T06:00:05.165Z,81
2022-08-06T06:01:00.527Z,80
2022-08-06T06:02:00.592Z,80
2022-08-06T06:03:02.520Z,80
2022-08-06T06:04:00.728Z,80
2022-08-06T06:06:04.767Z,80
2022-08-06T06:06:06.417Z,80
2022-08-06T06:07:04.587Z,80
2022-08-06T06:08:10.474Z,80
2022-08-06T06:09:01.843Z,79
2022-08-06T06:10:04.910Z,79
2022-08-06T06:11:00.623Z,79
2022-08-06T06:12:01.492Z,79
2022-08-06T06:13:00.609Z,79
2022-08-06T06:14:00.657Z,79
2022-08-06T06:15:59.296Z,79
2022-08-06T06:16:04.349Z,79
2022-08-06T06:17:00.634Z,78
2022-08-06T06:18:01.961Z,78
2022-08-06T06:19:00.617Z,78
2022-08-06T06:20:08.264Z,78
2022-08-06T06:21:17.766Z,77
2022-08-06T06:22:00.725Z,77
2022-08-06T06:23:00.664Z,77
2022-08-06T06:24:00.745Z,77
2022-08-06T06:25:03.659Z,77
2022-08-06T06:26:00.747Z,77
2022-08-06T06:27:02.468Z,77
2022-08-06T06:28:00.750Z,77
2022-08-06T06:29:01.301Z,77
2022-08-06T06:30:10.375Z,77
2022-08-06T06:31:02.193Z,76
2022-08-06T06:32:07.417Z,76
2022-08-06T06:33:00.731Z,76
2022-08-06T06:34:00.785Z,74
2022-08-06T06:35:04.089Z,74
2022-08-06T06:36:01.359Z,74
2022-08-06T06:37:00.749Z,72
2022-08-06T06:38:00.806Z,72
2022-08-06T06:39:00.845Z,72
2022-08-06T06:40:04.351Z,72
2022-08-06T06:41:06.587Z,72
2022-08-06T06:42:01.996Z,72
2022-08-06T06:43:00.776Z,72
2022-08-06T06:44:00.856Z,72
2022-08-06T06:46:05.077Z,72
2022-08-06T06:46:34.673Z,72
2022-08-06T06:47:00.827Z,71
2022-08-06T06:48:00.901Z,71
2022-08-06T06:49:00.805Z,71
2022-08-06T06:50:07.382Z,71
2022-08-06T06:51:01.234Z,71
2022-08-06T06:52:08.382Z,70
2022-08-06T06:53:03.208Z,70
2022-08-06T06:54:06.666Z,70
2022-08-06T06:55:05.338Z,70
2022-08-06T06:56:07.128Z,70
2022-08-06T06:57:00.883Z,70
2022-08-06T06:58:00.946Z,70
2022-08-06T06:59:00.870Z,69
2022-08-06T07:00:44.132Z,69
2022-08-06T07:01:11.935Z,69
2022-08-06T07:02:05.399Z,70
2022-08-06T07:03:01.351Z,70
2022-08-06T07:04:01.406Z,69
2022-08-06T07:05:03.908Z,69
2022-08-06T07:06:02.796Z,69
2022-08-06T07:07:07.815Z,68
2022-08-06T07:08:01.003Z,68
2022-08-06T07:09:12.114Z,68
2022-08-06T07:10:05.781Z,68
2022-08-06T07:11:00.955Z,68
2022-08-06T07:12:03.055Z,68
2022-08-06T07:13:00.969Z,67
2022-08-06T07:14:01.031Z,67
2022-08-06T07:15:03.930Z,67
2022-08-06T07:16:01.084Z,67
2022-08-06T07:17:00.993Z,66
2022-08-06T07:18:24.215Z,66
2022-08-06T07:19:01.042Z,66
2022-08-06T07:20:04.261Z,66
2022-08-06T07:21:01.020Z,66
2022-08-06T07:22:01.096Z,66
2022-08-06T07:24:03.183Z,66
2022-08-06T07:24:05.523Z,66
2022-08-06T07:25:06.196Z,66
2022-08-06T07:26:01.091Z,66
2022-08-06T07:27:01.169Z,65
2022-08-06T07:28:02.435Z,65
2022-08-06T07:29:03.424Z,65
2022-08-06T07:30:06.319Z,65
2022-08-06T07:31:04.326Z,65
2022-08-06T07:32:01.119Z,65
2022-08-06T07:33:01.091Z,65
2022-08-06T07:34:02.347Z,65
2022-08-06T07:35:12.112Z,65
2022-08-06T07:36:01.159Z,65
2022-08-06T07:37:01.105Z,65
2022-08-06T07:38:01.154Z,64
2022-08-06T07:39:01.139Z,64
2022-08-06T07:40:04.605Z,64
2022-08-06T07:41:01.112Z,64
2022-08-06T07:42:11.487Z,64
2022-08-06T07:43:01.138Z,63
2022-08-06T07:44:00.210Z,63
2022-08-06T07:45:03.077Z,63
2022-08-06T07:46:00.266Z,62
2022-08-06T07:47:00.166Z,62
2022-08-06T07:48:00.671Z,62
2022-08-06T07:49:00.173Z,62
2022-08-06T07:50:03.693Z,62
2022-08-06T07:51:00.192Z,62
2022-08-06T07:52:00.283Z,62
2022-08-06T07:53:00.817Z,62
2022-08-06T07:54:06.817Z,62
2022-08-06T07:55:03.152Z,62
2022-08-06T07:56:00.284Z,61
2022-08-06T07:57:01.882Z,61
2022-08-06T07:58:00.672Z,61
2022-08-06T07:59:00.241Z,61
2022-08-06T08:00:03.384Z,61
2022-08-06T08:01:00.265Z,61
2022-08-06T08:02:00.455Z,61
2022-08-06T08:03:00.280Z,60
2022-08-06T08:04:00.600Z,60
2022-08-06T08:05:05.088Z,60
2022-08-06T08:06:01.653Z,59
2022-08-06T08:07:00.307Z,59
2022-08-06T08:08:00.367Z,58
2022-08-06T08:09:00.617Z,58
2022-08-06T08:10:03.969Z,58
2022-08-06T08:11:00.327Z,57
2022-08-06T08:12:26.120Z,57
2022-08-06T08:13:03.441Z,56
2022-08-06T08:14:00.406Z,56
2022-08-06T08:15:03.523Z,56
2022-08-06T08:16:00.462Z,56
2022-08-06T08:17:00.362Z,56
2022-08-06T08:18:00.441Z,54
2022-08-06T08:19:05.539Z,54
2022-08-06T08:20:03.830Z,54
2022-08-06T08:21:00.418Z,53
2022-08-06T08:22:00.482Z,53
2022-08-06T08:23:00.421Z,53
2022-08-06T08:24:00.483Z,53
2022-08-06T08:25:03.415Z,52
2022-08-06T08:26:00.493Z,52
2022-08-06T08:27:12.059Z,52
2022-08-06T08:28:00.540Z,53
2022-08-06T08:29:00.430Z,53
2022-08-06T08:30:03.900Z,53
2022-08-06T08:31:00.458Z,53
2022-08-06T08:32:00.548Z,53
2022-08-06T08:33:00.486Z,52
2022-08-06T08:34:00.587Z,52
2022-08-06T08:35:03.306Z,52
2022-08-06T08:36:01.769Z,52
2022-08-06T08:37:00.510Z,52
2022-08-06T08:38:00.564Z,51
2022-08-06T08:39:00.596Z,51
2022-08-06T08:40:03.958Z,51
2022-08-06T08:41:00.746Z,50
2022-08-06T08:42:00.537Z,50
2022-08-06T08:43:00.484Z,49
2022-08-06T08:44:03.940Z,49
2022-08-06T08:45:00.236Z,50
2022-08-06T08:46:00.310Z,50
2022-08-06T08:47:00.223Z,50
2022-08-06T08:48:00.321Z,47
2022-08-06T08:49:00.237Z,47
2022-08-06T08:50:03.264Z,47
2022-08-06T08:51:00.280Z,47
2022-08-06T08:52:01.034Z,47
2022-08-06T08:53:00.301Z,47
2022-08-06T08:54:00.386Z,46
2022-08-06T08:55:03.169Z,46
2022-08-06T08:57:07.164Z,46
2022-08-06T08:57:11.581Z,46
2022-08-06T08:58:40.972Z,47
2022-08-06T08:59:01.615Z,47
2022-08-06T09:00:09.819Z,47
2022-08-06T09:01:00.375Z,45
2022-08-06T09:02:00.498Z,45
2022-08-06T09:03:00.435Z,45
2022-08-06T09:04:02.267Z,45
2022-08-06T09:05:03.039Z,45
2022-08-06T09:06:01.371Z,45
2022-08-06T09:07:00.414Z,45
2022-08-06T09:08:01.659Z,45
2022-08-06T09:09:03.148Z,45
2022-08-06T09:10:03.967Z,45
2022-08-06T09:11:00.444Z,45
2022-08-06T09:12:04.943Z,45
2022-08-06T09:13:01.295Z,45
2022-08-06T09:14:00.773Z,45
2022-08-06T09:15:03.246Z,45
2022-08-06T09:16:00.578Z,45
2022-08-06T09:17:00.484Z,46
2022-08-06T09:18:26.734Z,46
2022-08-06T09:19:00.492Z,46
2022-08-06T09:20:04.883Z,46
2022-08-06T09:21:00.521Z,47
2022-08-06T09:22:00.707Z,47
2022-08-06T09:23:00.515Z,47
2022-08-06T09:24:04.812Z,46
2022-08-06T09:25:07.524Z,46
2022-08-06T09:26:00.586Z,46
2022-08-06T09:27:03.238Z,46
2022-08-06T09:28:00.639Z,46
2022-08-06T09:29:00.561Z,46
2022-08-06T09:30:25.513Z,46
2022-08-06T09:31:00.577Z,46
2022-08-06T09:32:00.651Z,46
2022-08-06T09:33:04.041Z,46
2022-08-06T09:34:30.442Z,46
2022-08-06T09:35:04.961Z,46
2022-08-06T09:36:00.682Z,46
2022-08-06T09:37:05.063Z,45
2022-08-06T09:38:00.692Z,45
2022-08-06T09:39:01.091Z,45
2022-08-06T09:40:13.242Z,45
2022-08-06T09:41:00.681Z,44
2022-08-06T09:42:00.739Z,44
2022-08-06T09:43:00.669Z,43
2022-08-06T09:44:02.679Z,43
2022-08-06T09:45:03.993Z,43
2022-08-06T09:46:00.793Z,43
2022-08-06T09:47:00.684Z,43
2022-08-06T09:48:01.818Z,43
2022-08-06T09:49:48.655Z,43
2022-08-06T09:50:03.956Z,43
2022-08-06T09:51:00.728Z,43
2022-08-06T09:52:02.043Z,43
2022-08-06T09:53:00.730Z,43
2022-08-06T09:54:05.682Z,43
2022-08-06T09:55:04.297Z,43
2022-08-06T09:56:00.845Z,43
2022-08-06T09:57:00.824Z,43
2022-08-06T09:58:00.900Z,43
2022-08-06T09:59:00.811Z,42
2022-08-06T10:00:05.273Z,42
2022-08-06T10:01:00.829Z,42
2022-08-06T10:02:00.995Z,42
2022-08-06T10:04:01.221Z,42
2022-08-06T10:04:09.260Z,42
2022-08-06T10:05:03.788Z,42
2022-08-06T10:06:00.965Z,42
2022-08-06T10:07:00.869Z,41
2022-08-06T10:08:00.945Z,41
2022-08-06T10:09:00.890Z,41
2022-08-06T10:10:04.066Z,40
2022-08-06T10:11:05.572Z,40
2022-08-06T10:12:00.988Z,38
2022-08-06T10:13:03.350Z,38
2022-08-06T10:14:00.990Z,38
2022-08-06T10:15:03.699Z,40
2022-08-06T10:16:03.881Z,40
2022-08-06T10:17:00.933Z,40
2022-08-06T10:18:01.023Z,40
2022-08-06T10:19:18.878Z,40
2022-08-06T10:20:04.228Z,39
2022-08-06T10:21:00.960Z,39
2022-08-06T10:22:01.054Z,39
2022-08-06T10:23:00.976Z,39
2022-08-06T10:24:01.070Z,39
2022-08-06T10:25:12.645Z,39
2022-08-06T10:26:03.744Z,39
2022-08-06T10:27:01.010Z,39
2022-08-06T10:28:01.290Z,39
2022-08-06T10:29:01.033Z,39
2022-08-06T10:30:04.393Z,39
2022-08-06T10:31:01.025Z,39
2022-08-06T10:32:01.077Z,39
2022-08-06T10:33:01.046Z,40
2022-08-06T10:34:02.051Z,40
2022-08-06T10:35:04.446Z,40
2022-08-06T10:36:04.171Z,40
2022-08-06T10:37:01.052Z,40
2022-08-06T10:38:03.397Z,39
2022-08-06T10:39:03.498Z,39
2022-08-06T10:40:09.642Z,39
2022-08-06T10:41:01.341Z,39
2022-08-06T10:42:06.606Z,38
2022-08-06T10:43:01.112Z,38
2022-08-06T10:44:01.192Z,38
2022-08-06T10:45:13.363Z,39
2022-08-06T10:46:01.215Z,39
2022-08-06T10:47:01.127Z,39
2022-08-06T10:48:56.627Z,39
2022-08-06T10:50:24.277Z,39
2022-08-06T10:50:30.281Z,39
2022-08-06T10:51:00.601Z,39
2022-08-06T10:52:02.206Z,39
2022-08-06T10:53:00.177Z,39
2022-08-06T10:54:08.925Z,39
2022-08-06T10:55:03.165Z,39
2022-08-06T10:56:00.276Z,39
2022-08-06T10:57:01.475Z,39
2022-08-06T10:58:00.309Z,38
2022-08-06T10:59:00.222Z,38
2022-08-06T11:00:03.371Z,38
2022-08-06T11:01:00.259Z,38
2022-08-06T11:02:00.332Z,38
2022-08-06T11:03:00.273Z,38
2022-08-06T11:04:00.431Z,38
2022-08-06T11:05:18.038Z,38
2022-08-06T11:06:00.535Z,38
2022-08-06T11:07:00.276Z,38
2022-08-06T11:08:08.426Z,38
2022-08-06T11:09:00.921Z,38
2022-08-06T11:10:05.546Z,38
2022-08-06T11:11:00.309Z,38
2022-08-06T11:12:05.630Z,38
2022-08-06T11:13:00.317Z,38
2022-08-06T11:14:03.358Z,38
2022-08-06T11:15:03.148Z,39
2022-08-06T11:16:01.487Z,39
2022-08-06T11:17:00.449Z,39
2022-08-06T11:18:00.462Z,38
2022-08-06T11:19:00.359Z,38
2022-08-06T11:20:06.645Z,37
2022-08-06T11:21:00.381Z,37
2022-08-06T11:22:03.067Z,37
2022-08-06T11:23:00.377Z,36
2022-08-06T11:24:01.453Z,36
2022-08-06T11:25:03.292Z,36
2022-08-06T11:26:01.367Z,36
2022-08-06T11:27:01.745Z,36
2022-08-06T11:28:05.245Z,36
2022-08-06T11:29:00.417Z,36
2022-08-06T11:30:04.827Z,36
2022-08-06T11:31:02.923Z,36
2022-08-06T11:32:01.122Z,35
2022-08-06T11:33:00.453Z,35
2022-08-06T11:34:02.065Z,35
2022-08-06T11:35:05.814Z,35
2022-08-06T11:36:00.539Z,35
2022-08-06T11:37:01.466Z,35
2022-08-06T11:38:24.268Z,35
2022-08-06T11:39:09.832Z,35
2022-08-06T11:40:04.307Z,35
2022-08-06T11:41:05.945Z,35
2022-08-06T11:42:02.033Z,35
2022-08-06T11:43:03.580Z,33
2022-08-06T11:44:03.852Z,33
2022-08-06T11:45:06.197Z,33
2022-08-06T11:46:21.775Z,33
2022-08-06T11:47:00.575Z,33
2022-08-06T11:48:00.657Z,34
2022-08-06T11:49:00.583Z,34
2022-08-06T11:50:03.708Z,34
2022-08-06T11:51:00.606Z,34
2022-08-06T11:52:05.875Z,34
2022-08-06T11:53:00.612Z,34
2022-08-06T11:54:00.672Z,34
2022-08-06T11:55:03.350Z,34
2022-08-06T11:56:00.684Z,34
2022-08-06T11:57:00.657Z,34
2022-08-06T11:58:02.054Z,34
2022-08-06T11:59:00.763Z,34
2022-08-06T12:00:04.410Z,34
2022-08-06T12:01:03.900Z,35
2022-08-06T12:02:00.919Z,35
2022-08-06T12:03:00.690Z,36
2022-08-06T12:04:00.815Z,36
2022-08-06T12:05:03.484Z,36
2022-08-06T12:06:02.042Z,35
2022-08-06T12:07:00.706Z,35
2022-08-06T12:08:00.773Z,36
2022-08-06T12:09:00.724Z,36
2022-08-06T12:10:03.904Z,36
2022-08-06T12:11:00.732Z,35
2022-08-06T12:12:00.798Z,35
2022-08-06T12:13:00.744Z,35
2022-08-06T12:14:33.410Z,35
2022-08-06T12:15:06.948Z,35
2022-08-06T12:16:12.210Z,35
2022-08-06T12:17:03.387Z,35
2022-08-06T12:18:19.276Z,35
2022-08-06T12:19:00.768Z,35
2022-08-06T12:20:04.120Z,34
2022-08-06T12:21:00.804Z,34
2022-08-06T12:22:00.876Z,34
2022-08-06T12:23:00.789Z,35
2022-08-06T12:24:02.042Z,35
2022-08-06T12:25:09.709Z,35
2022-08-06T12:26:00.880Z,35
2022-08-06T12:27:00.823Z,35
2022-08-06T12:28:00.920Z,35
2022-08-06T12:29:00.819Z,35
2022-08-06T12:30:04.116Z,34
2022-08-06T12:31:23.651Z,34
2022-08-06T12:32:02.046Z,34
2022-08-06T12:33:00.918Z,34
2022-08-06T12:34:00.969Z,34
2022-08-06T12:35:03.703Z,34
2022-08-06T12:36:01.002Z,34
2022-08-06T12:37:00.903Z,34
2022-08-06T12:38:00.968Z,32
2022-08-06T12:39:01.308Z,32
2022-08-06T12:40:09.705Z,32
2022-08-06T12:41:00.943Z,32
2022-08-06T12:42:01.034Z,32
2022-08-06T12:43:03.267Z,32
2022-08-06T12:44:01.059Z,32
2022-08-06T12:45:03.861Z,32
2022-08-06T12:46:06.914Z,32
2022-08-06T12:47:00.974Z,32
2022-08-06T12:48:04.132Z,32
2022-08-06T12:49:01.593Z,32
2022-08-06T12:50:04.092Z,32
2022-08-06T12:51:01.015Z,32
2022-08-06T12:52:01.115Z,32
2022-08-06T12:53:01.009Z,32
2022-08-06T12:54:01.109Z,32
2022-08-06T12:55:03.804Z,32
2022-08-06T12:56:01.084Z,31
2022-08-06T12:57:02.505Z,31
2022-08-06T12:58:05.972Z,31
2022-08-06T12:59:01.141Z,32
2022-08-06T13:00:05.587Z,32
2022-08-06T13:01:01.113Z,32
2022-08-06T13:02:10.902Z,32
2022-08-06T13:03:01.107Z,32
2022-08-06T13:04:04.832Z,31
2022-08-06T13:05:03.882Z,31
2022-08-06T13:06:01.203Z,31
2022-08-06T13:07:01.690Z,30
2022-08-06T13:08:01.211Z,30
2022-08-06T13:09:01.152Z,30
2022-08-06T13:10:34.397Z,30
2022-08-06T13:11:01.156Z,30
2022-08-06T13:12:01.241Z,30
2022-08-06T13:14:13.774Z,30
2022-08-06T13:14:15.738Z,30
2022-08-06T13:15:17.471Z,30
2022-08-06T13:16:00.265Z,30
2022-08-06T13:17:00.199Z,30
2022-08-06T13:18:00.821Z,30
2022-08-06T13:19:00.204Z,31
2022-08-06T13:20:04.744Z,31
2022-08-06T13:21:00.236Z,31
2022-08-06T13:22:00.459Z,31
2022-08-06T13:23:00.225Z,31
2022-08-06T13:24:00.347Z,31
2022-08-06T13:25:07.055Z,31
2022-08-06T13:26:10.597Z,31
2022-08-06T13:27:00.268Z,31
2022-08-06T13:28:00.320Z,31
2022-08-06T13:30:29.410Z,31
2022-08-06T13:30:33.224Z,31
2022-08-06T13:31:01.474Z,31
2022-08-06T13:32:00.737Z,31
2022-08-06T13:33:00.302Z,31
2022-08-06T13:34:04.160Z,31
2022-08-06T13:35:04.032Z,31
2022-08-06T13:36:00.410Z,31
2022-08-06T13:37:00.577Z,31
2022-08-06T13:38:16.240Z,31
2022-08-06T13:39:00.397Z,31
2022-08-06T13:40:03.420Z,31
2022-08-06T13:41:04.023Z,31
2022-08-06T13:42:07.968Z,30
2022-08-06T13:43:00.397Z,30
2022-08-06T13:44:00.449Z,31
2022-08-06T13:45:03.391Z,31
2022-08-06T13:46:02.644Z,31
2022-08-06T13:47:12.244Z,31
2022-08-06T13:48:05.345Z,31
2022-08-06T13:49:01.613Z,31
2022-08-06T13:50:08.376Z,31
2022-08-06T13:51:00.460Z,31
2022-08-06T13:52:00.545Z,30
2022-08-06T13:53:00.956Z,30
2022-08-06T13:54:14.331Z,30
2022-08-06T13:55:02.400Z,30
2022-08-06T13:56:03.137Z,30
2022-08-06T13:57:00.497Z,31
2022-08-06T13:58:00.575Z,31
2022-08-06T13:59:01.467Z,31
2022-08-06T14:00:04.952Z,31
2022-08-06T14:01:00.517Z,31
2022-08-06T14:02:00.596Z,31
2022-08-06T14:03:00.614Z,31
2022-08-06T14:04:00.669Z,31
2022-08-06T14:05:03.394Z,31
2022-08-06T14:06:00.630Z,31
2022-08-06T14:07:00.559Z,31
2022-08-06T14:08:02.063Z,31
2022-08-06T14:09:00.587Z,30
2022-08-06T14:10:08.491Z,30
2022-08-06T14:11:00.586Z,30
2022-08-06T14:12:00.830Z,30
2022-08-06T14:13:01.010Z,30
2022-08-06T14:14:00.650Z,30
2022-08-06T14:15:03.427Z,30